sensor_id;sensor_type;location;lat;lon;timestamp;P1;durP1;ratioP1;P2;durP2;ratioP2
61393;SDS011;48555;50.952;-0.120;2023-04-25T00:00:55;12.15;;;3.70;;
61393;SDS011;48555;50.952;-0.120;2023-04-25T00:03:20;11.60;;;3.78;;
61393;SDS011;48555;50.952;-0.120;2023-04-25T00:05:46;12.52;;;3.53;;
61393;SDS011;48555;50.952;-0.120;2023-04-25T00:08:11;13.10;;;3.60;;
61393;SDS011;48555;50.952;-0.120;2023-04-25T00:10:36;9.45;;;2.97;;
61393;SDS011;48555;50.952;-0.120;2023-04-25T00:13:02;10.55;;;3.22;;
61393;SDS011;48555;50.952;-0.120;2023-04-25T00:15:27;9.43;;;3.13;;
61393;SDS011;48555;50.952;-0.120;2023-04-25T00:17:55;11.82;;;3.50;;
61393;SDS011;48555;50.952;-0.120;2023-04-25T00:20:21;10.20;;;3.33;;
61393;SDS011;48555;50.952;-0.120;2023-04-25T00:22:48;11.02;;;3.40;;
61393;SDS011;48555;50.952;-0.120;2023-04-25T00:25:14;14.13;;;4.68;;
61393;SDS011;48555;50.952;-0.120;2023-04-25T00:27:39;8.85;;;3.20;;
61393;SDS011;48555;50.952;-0.120;2023-04-25T00:30:04;10.85;;;3.33;;
61393;SDS011;48555;50.952;-0.120;2023-04-25T00:32:30;12.23;;;3.42;;
61393;SDS011;48555;50.952;-0.120;2023-04-25T00:34:56;9.70;;;3.35;;
61393;SDS011;48555;50.952;-0.120;2023-04-25T00:37:22;11.38;;;3.42;;
61393;SDS011;48555;50.952;-0.120;2023-04-25T00:39:48;11.80;;;3.35;;
61393;SDS011;48555;50.952;-0.120;2023-04-25T00:42:14;10.77;;;3.50;;
61393;SDS011;48555;50.952;-0.120;2023-04-25T00:44:40;13.52;;;3.45;;
61393;SDS011;48555;50.952;-0.120;2023-04-25T00:47:06;13.43;;;3.55;;
61393;SDS011;48555;50.952;-0.120;2023-04-25T00:49:32;12.38;;;3.42;;
61393;SDS011;48555;50.952;-0.120;2023-04-25T00:51:57;11.63;;;3.38;;
61393;SDS011;48555;50.952;-0.120;2023-04-25T00:54:22;12.40;;;3.45;;
61393;SDS011;48555;50.952;-0.120;2023-04-25T00:56:48;11.82;;;3.30;;
61393;SDS011;48555;50.952;-0.120;2023-04-25T00:59:14;9.30;;;3.30;;
61393;SDS011;48555;50.952;-0.120;2023-04-25T01:01:40;14.18;;;3.50;;
61393;SDS011;48555;50.952;-0.120;2023-04-25T01:04:06;12.48;;;3.65;;
61393;SDS011;48555;50.952;-0.120;2023-04-25T01:06:32;8.43;;;2.60;;
61393;SDS011;48555;50.952;-0.120;2023-04-25T01:08:57;9.13;;;3.00;;
61393;SDS011;48555;50.952;-0.120;2023-04-25T01:11:24;12.48;;;3.80;;
61393;SDS011;48555;50.952;-0.120;2023-04-25T01:13:50;12.02;;;3.40;;
61393;SDS011;48555;50.952;-0.120;2023-04-25T01:16:15;13.38;;;3.78;;
61393;SDS011;48555;50.952;-0.120;2023-04-25T01:18:41;17.42;;;3.75;;
61393;SDS011;48555;50.952;-0.120;2023-04-25T01:21:08;13.38;;;3.58;;
61393;SDS011;48555;50.952;-0.120;2023-04-25T01:23:35;11.55;;;3.00;;
61393;SDS011;48555;50.952;-0.120;2023-04-25T01:26:01;12.57;;;3.58;;
61393;SDS011;48555;50.952;-0.120;2023-04-25T01:28:27;10.02;;;3.35;;
61393;SDS011;48555;50.952;-0.120;2023-04-25T01:30:54;10.73;;;3.40;;
61393;SDS011;48555;50.952;-0.120;2023-04-25T01:33:20;17.65;;;3.47;;
61393;SDS011;48555;50.952;-0.120;2023-04-25T01:35:46;11.95;;;2.83;;
61393;SDS011;48555;50.952;-0.120;2023-04-25T01:38:12;11.10;;;3.38;;
61393;SDS011;48555;50.952;-0.120;2023-04-25T01:40:38;11.68;;;3.53;;
61393;SDS011;48555;50.952;-0.120;2023-04-25T01:43:06;12.80;;;4.32;;
61393;SDS011;48555;50.952;-0.120;2023-04-25T01:45:33;14.25;;;3.90;;
61393;SDS011;48555;50.952;-0.120;2023-04-25T01:48:01;18.40;;;3.80;;
61393;SDS011;48555;50.952;-0.120;2023-04-25T01:50:26;12.20;;;3.10;;
61393;SDS011;48555;50.952;-0.120;2023-04-25T01:52:52;16.63;;;3.85;;
61393;SDS011;48555;50.952;-0.120;2023-04-25T01:55:18;11.88;;;3.58;;
61393;SDS011;48555;50.952;-0.120;2023-04-25T01:57:43;11.40;;;4.10;;
61393;SDS011;48555;50.952;-0.120;2023-04-25T02:00:09;12.48;;;3.63;;
61393;SDS011;48555;50.952;-0.120;2023-04-25T02:02:35;11.48;;;3.80;;
61393;SDS011;48555;50.952;-0.120;2023-04-25T02:05:00;13.07;;;3.33;;
61393;SDS011;48555;50.952;-0.120;2023-04-25T02:07:26;13.45;;;3.40;;
61393;SDS011;48555;50.952;-0.120;2023-04-25T02:09:51;12.27;;;3.30;;
61393;SDS011;48555;50.952;-0.120;2023-04-25T02:12:17;12.20;;;3.33;;
61393;SDS011;48555;50.952;-0.120;2023-04-25T02:14:42;11.70;;;3.78;;
61393;SDS011;48555;50.952;-0.120;2023-04-25T02:17:08;12.57;;;3.17;;
61393;SDS011;48555;50.952;-0.120;2023-04-25T02:19:33;11.80;;;3.20;;
61393;SDS011;48555;50.952;-0.120;2023-04-25T02:21:58;14.80;;;3.40;;
61393;SDS011;48555;50.952;-0.120;2023-04-25T02:24:24;8.80;;;3.33;;
61393;SDS011;48555;50.952;-0.120;2023-04-25T02:26:49;11.15;;;3.60;;
61393;SDS011;48555;50.952;-0.120;2023-04-25T02:29:15;11.75;;;2.90;;
61393;SDS011;48555;50.952;-0.120;2023-04-25T02:31:41;11.15;;;3.10;;
61393;SDS011;48555;50.952;-0.120;2023-04-25T02:34:07;13.05;;;3.00;;
61393;SDS011;48555;50.952;-0.120;2023-04-25T02:36:32;12.27;;;3.30;;
61393;SDS011;48555;50.952;-0.120;2023-04-25T02:38:59;11.88;;;3.60;;
61393;SDS011;48555;50.952;-0.120;2023-04-25T02:41:25;8.38;;;2.60;;
61393;SDS011;48555;50.952;-0.120;2023-04-25T02:43:51;9.07;;;2.88;;
61393;SDS011;48555;50.952;-0.120;2023-04-25T02:46:16;12.90;;;3.53;;
61393;SDS011;48555;50.952;-0.120;2023-04-25T02:48:41;8.95;;;2.70;;
61393;SDS011;48555;50.952;-0.120;2023-04-25T02:51:07;9.13;;;2.85;;
61393;SDS011;48555;50.952;-0.120;2023-04-25T02:53:32;9.40;;;3.08;;
61393;SDS011;48555;50.952;-0.120;2023-04-25T02:55:57;11.45;;;2.53;;
61393;SDS011;48555;50.952;-0.120;2023-04-25T02:58:24;8.60;;;2.90;;
61393;SDS011;48555;50.952;-0.120;2023-04-25T03:00:49;9.93;;;3.13;;
61393;SDS011;48555;50.952;-0.120;2023-04-25T03:03:15;9.40;;;2.80;;
61393;SDS011;48555;50.952;-0.120;2023-04-25T03:05:43;9.45;;;2.65;;
61393;SDS011;48555;50.952;-0.120;2023-04-25T03:08:08;10.02;;;2.90;;
61393;SDS011;48555;50.952;-0.120;2023-04-25T03:10:34;10.18;;;2.90;;
61393;SDS011;48555;50.952;-0.120;2023-04-25T03:12:59;12.88;;;2.90;;
61393;SDS011;48555;50.952;-0.120;2023-04-25T03:15:25;12.93;;;2.90;;
61393;SDS011;48555;50.952;-0.120;2023-04-25T03:17:50;10.48;;;2.60;;
61393;SDS011;48555;50.952;-0.120;2023-04-25T03:20:16;9.27;;;2.65;;
61393;SDS011;48555;50.952;-0.120;2023-04-25T03:22:41;9.90;;;2.75;;
61393;SDS011;48555;50.952;-0.120;2023-04-25T03:25:06;7.78;;;2.30;;
61393;SDS011;48555;50.952;-0.120;2023-04-25T03:27:32;8.73;;;2.47;;
61393;SDS011;48555;50.952;-0.120;2023-04-25T03:29:58;10.95;;;2.70;;
61393;SDS011;48555;50.952;-0.120;2023-04-25T03:32:23;5.85;;;2.35;;
61393;SDS011;48555;50.952;-0.120;2023-04-25T03:34:49;12.15;;;2.55;;
61393;SDS011;48555;50.952;-0.120;2023-04-25T03:37:14;9.80;;;2.75;;
61393;SDS011;48555;50.952;-0.120;2023-04-25T03:39:39;7.93;;;2.47;;
61393;SDS011;48555;50.952;-0.120;2023-04-25T03:42:05;6.65;;;2.22;;
61393;SDS011;48555;50.952;-0.120;2023-04-25T03:44:30;9.15;;;2.60;;
61393;SDS011;48555;50.952;-0.120;2023-04-25T03:46:55;10.85;;;2.50;;
61393;SDS011;48555;50.952;-0.120;2023-04-25T03:49:21;10.98;;;2.80;;
61393;SDS011;48555;50.952;-0.120;2023-04-25T03:51:46;8.35;;;2.65;;
61393;SDS011;48555;50.952;-0.120;2023-04-25T03:54:12;7.60;;;2.45;;
61393;SDS011;48555;50.952;-0.120;2023-04-25T03:56:37;10.15;;;2.15;;
61393;SDS011;48555;50.952;-0.120;2023-04-25T03:59:02;9.88;;;2.58;;
61393;SDS011;48555;50.952;-0.120;2023-04-25T04:01:28;12.38;;;2.50;;
61393;SDS011;48555;50.952;-0.120;2023-04-25T04:03:53;9.15;;;2.50;;
61393;SDS011;48555;50.952;-0.120;2023-04-25T04:06:18;8.50;;;2.33;;
61393;SDS011;48555;50.952;-0.120;2023-04-25T04:08:45;11.25;;;2.60;;
61393;SDS011;48555;50.952;-0.120;2023-04-25T04:11:11;9.00;;;2.53;;
61393;SDS011;48555;50.952;-0.120;2023-04-25T04:13:36;12.00;;;2.70;;
61393;SDS011;48555;50.952;-0.120;2023-04-25T04:16:01;11.63;;;2.50;;
61393;SDS011;48555;50.952;-0.120;2023-04-25T04:18:29;8.13;;;2.65;;
61393;SDS011;48555;50.952;-0.120;2023-04-25T04:20:54;8.70;;;2.67;;
61393;SDS011;48555;50.952;-0.120;2023-04-25T04:23:19;7.68;;;2.60;;
61393;SDS011;48555;50.952;-0.120;2023-04-25T04:25:45;9.85;;;3.03;;
61393;SDS011;48555;50.952;-0.120;2023-04-25T04:28:11;6.80;;;2.65;;
61393;SDS011;48555;50.952;-0.120;2023-04-25T04:30:39;5.90;;;2.30;;
61393;SDS011;48555;50.952;-0.120;2023-04-25T04:33:06;8.90;;;2.42;;
61393;SDS011;48555;50.952;-0.120;2023-04-25T04:35:33;13.38;;;2.78;;
61393;SDS011;48555;50.952;-0.120;2023-04-25T04:37:58;8.10;;;2.50;;
61393;SDS011;48555;50.952;-0.120;2023-04-25T04:40:23;8.65;;;2.90;;
61393;SDS011;48555;50.952;-0.120;2023-04-25T04:42:50;11.60;;;2.85;;
61393;SDS011;48555;50.952;-0.120;2023-04-25T04:45:16;9.73;;;2.60;;
61393;SDS011;48555;50.952;-0.120;2023-04-25T04:47:41;7.93;;;2.63;;
61393;SDS011;48555;50.952;-0.120;2023-04-25T04:50:08;9.18;;;2.70;;
61393;SDS011;48555;50.952;-0.120;2023-04-25T04:52:35;12.30;;;3.42;;
61393;SDS011;48555;50.952;-0.120;2023-04-25T04:55:02;8.48;;;2.60;;
61393;SDS011;48555;50.952;-0.120;2023-04-25T04:57:28;11.95;;;2.95;;
61393;SDS011;48555;50.952;-0.120;2023-04-25T04:59:53;8.85;;;3.05;;
61393;SDS011;48555;50.952;-0.120;2023-04-25T05:02:19;10.70;;;2.92;;
61393;SDS011;48555;50.952;-0.120;2023-04-25T05:04:44;7.30;;;2.78;;
61393;SDS011;48555;50.952;-0.120;2023-04-25T05:07:10;9.27;;;2.83;;
61393;SDS011;48555;50.952;-0.120;2023-04-25T05:09:36;11.13;;;2.90;;
61393;SDS011;48555;50.952;-0.120;2023-04-25T05:12:01;8.95;;;2.63;;
61393;SDS011;48555;50.952;-0.120;2023-04-25T05:14:27;8.48;;;3.00;;
61393;SDS011;48555;50.952;-0.120;2023-04-25T05:16:52;8.80;;;2.97;;
61393;SDS011;48555;50.952;-0.120;2023-04-25T05:19:17;11.75;;;3.40;;
61393;SDS011;48555;50.952;-0.120;2023-04-25T05:21:43;6.72;;;2.65;;
61393;SDS011;48555;50.952;-0.120;2023-04-25T05:24:08;9.80;;;3.10;;
61393;SDS011;48555;50.952;-0.120;2023-04-25T05:26:33;8.38;;;3.72;;
61393;SDS011;48555;50.952;-0.120;2023-04-25T05:28:59;7.32;;;2.90;;
61393;SDS011;48555;50.952;-0.120;2023-04-25T05:31:25;11.60;;;3.85;;
61393;SDS011;48555;50.952;-0.120;2023-04-25T05:33:51;8.75;;;3.17;;
61393;SDS011;48555;50.952;-0.120;2023-04-25T05:36:16;9.93;;;3.00;;
61393;SDS011;48555;50.952;-0.120;2023-04-25T05:38:42;10.68;;;3.70;;
61393;SDS011;48555;50.952;-0.120;2023-04-25T05:41:07;8.13;;;2.72;;
61393;SDS011;48555;50.952;-0.120;2023-04-25T05:43:33;7.93;;;2.85;;
61393;SDS011;48555;50.952;-0.120;2023-04-25T05:45:58;7.00;;;2.70;;
61393;SDS011;48555;50.952;-0.120;2023-04-25T05:48:24;7.10;;;2.92;;
61393;SDS011;48555;50.952;-0.120;2023-04-25T05:50:49;8.50;;;2.70;;
61393;SDS011;48555;50.952;-0.120;2023-04-25T05:53:16;10.55;;;2.95;;
61393;SDS011;48555;50.952;-0.120;2023-04-25T05:55:41;11.13;;;3.50;;
61393;SDS011;48555;50.952;-0.120;2023-04-25T05:58:07;11.07;;;3.35;;
61393;SDS011;48555;50.952;-0.120;2023-04-25T06:00:32;11.38;;;3.30;;
61393;SDS011;48555;50.952;-0.120;2023-04-25T06:02:58;9.13;;;3.03;;
61393;SDS011;48555;50.952;-0.120;2023-04-25T06:05:23;9.35;;;3.03;;
61393;SDS011;48555;50.952;-0.120;2023-04-25T06:07:48;10.65;;;3.05;;
61393;SDS011;48555;50.952;-0.120;2023-04-25T06:10:14;9.07;;;2.92;;
61393;SDS011;48555;50.952;-0.120;2023-04-25T06:12:40;8.40;;;2.90;;
61393;SDS011;48555;50.952;-0.120;2023-04-25T06:15:05;8.02;;;2.70;;
61393;SDS011;48555;50.952;-0.120;2023-04-25T06:17:31;9.48;;;2.95;;
61393;SDS011;48555;50.952;-0.120;2023-04-25T06:19:56;11.43;;;2.67;;
61393;SDS011;48555;50.952;-0.120;2023-04-25T06:22:22;8.30;;;2.72;;
61393;SDS011;48555;50.952;-0.120;2023-04-25T06:24:47;8.50;;;2.40;;
61393;SDS011;48555;50.952;-0.120;2023-04-25T06:27:13;7.35;;;2.15;;
61393;SDS011;48555;50.952;-0.120;2023-04-25T06:29:38;6.25;;;2.08;;
61393;SDS011;48555;50.952;-0.120;2023-04-25T06:32:03;10.48;;;2.75;;
61393;SDS011;48555;50.952;-0.120;2023-04-25T06:34:29;8.52;;;2.75;;
61393;SDS011;48555;50.952;-0.120;2023-04-25T06:36:55;12.57;;;2.78;;
61393;SDS011;48555;50.952;-0.120;2023-04-25T06:39:20;9.10;;;2.40;;
61393;SDS011;48555;50.952;-0.120;2023-04-25T06:41:48;8.43;;;2.85;;
61393;SDS011;48555;50.952;-0.120;2023-04-25T06:44:13;10.93;;;3.45;;
61393;SDS011;48555;50.952;-0.120;2023-04-25T06:46:38;10.50;;;3.03;;
61393;SDS011;48555;50.952;-0.120;2023-04-25T06:49:04;7.20;;;2.38;;
61393;SDS011;48555;50.952;-0.120;2023-04-25T06:51:29;7.75;;;2.30;;
61393;SDS011;48555;50.952;-0.120;2023-04-25T06:53:55;6.35;;;2.22;;
61393;SDS011;48555;50.952;-0.120;2023-04-25T06:56:21;13.70;;;2.80;;
61393;SDS011;48555;50.952;-0.120;2023-04-25T06:58:46;9.60;;;2.47;;
61393;SDS011;48555;50.952;-0.120;2023-04-25T07:01:11;6.68;;;2.50;;
61393;SDS011;48555;50.952;-0.120;2023-04-25T07:03:37;10.65;;;2.45;;
61393;SDS011;48555;50.952;-0.120;2023-04-25T07:06:03;7.55;;;2.35;;
61393;SDS011;48555;50.952;-0.120;2023-04-25T07:08:28;9.13;;;2.50;;
61393;SDS011;48555;50.952;-0.120;2023-04-25T07:10:54;6.72;;;2.60;;
61393;SDS011;48555;50.952;-0.120;2023-04-25T07:13:19;8.23;;;2.30;;
61393;SDS011;48555;50.952;-0.120;2023-04-25T07:15:45;11.40;;;3.10;;
61393;SDS011;48555;50.952;-0.120;2023-04-25T07:18:12;8.75;;;2.55;;
61393;SDS011;48555;50.952;-0.120;2023-04-25T07:20:38;8.32;;;2.20;;
61393;SDS011;48555;50.952;-0.120;2023-04-25T07:23:03;10.32;;;2.60;;
61393;SDS011;48555;50.952;-0.120;2023-04-25T07:25:28;8.68;;;2.13;;
61393;SDS011;48555;50.952;-0.120;2023-04-25T07:27:55;7.43;;;2.38;;
61393;SDS011;48555;50.952;-0.120;2023-04-25T07:30:21;9.25;;;2.45;;
61393;SDS011;48555;50.952;-0.120;2023-04-25T07:32:46;9.57;;;2.80;;
61393;SDS011;48555;50.952;-0.120;2023-04-25T07:35:12;11.68;;;2.63;;
61393;SDS011;48555;50.952;-0.120;2023-04-25T07:37:37;9.65;;;2.80;;
61393;SDS011;48555;50.952;-0.120;2023-04-25T07:40:03;7.85;;;2.40;;
61393;SDS011;48555;50.952;-0.120;2023-04-25T07:42:29;10.98;;;2.97;;
61393;SDS011;48555;50.952;-0.120;2023-04-25T07:44:55;9.63;;;2.70;;
61393;SDS011;48555;50.952;-0.120;2023-04-25T07:47:20;8.57;;;2.63;;
61393;SDS011;48555;50.952;-0.120;2023-04-25T07:49:46;10.43;;;2.40;;
61393;SDS011;48555;50.952;-0.120;2023-04-25T07:52:12;8.82;;;2.30;;
61393;SDS011;48555;50.952;-0.120;2023-04-25T07:54:37;8.93;;;2.28;;
61393;SDS011;48555;50.952;-0.120;2023-04-25T07:57:02;8.50;;;2.20;;
61393;SDS011;48555;50.952;-0.120;2023-04-25T07:59:28;7.88;;;2.13;;
61393;SDS011;48555;50.952;-0.120;2023-04-25T08:01:53;9.25;;;2.22;;
61393;SDS011;48555;50.952;-0.120;2023-04-25T08:04:19;6.85;;;1.98;;
61393;SDS011;48555;50.952;-0.120;2023-04-25T08:06:44;7.03;;;2.05;;
61393;SDS011;48555;50.952;-0.120;2023-04-25T08:09:10;9.52;;;2.47;;
61393;SDS011;48555;50.952;-0.120;2023-04-25T08:11:36;8.70;;;1.92;;
61393;SDS011;48555;50.952;-0.120;2023-04-25T08:14:01;7.35;;;2.05;;
61393;SDS011;48555;50.952;-0.120;2023-04-25T08:16:27;7.60;;;2.08;;
61393;SDS011;48555;50.952;-0.120;2023-04-25T08:18:53;5.70;;;1.73;;
61393;SDS011;48555;50.952;-0.120;2023-04-25T08:21:19;5.47;;;1.88;;
61393;SDS011;48555;50.952;-0.120;2023-04-25T08:23:45;8.38;;;2.13;;
61393;SDS011;48555;50.952;-0.120;2023-04-25T08:26:10;7.72;;;2.25;;
61393;SDS011;48555;50.952;-0.120;2023-04-25T08:28:35;8.23;;;2.30;;
61393;SDS011;48555;50.952;-0.120;2023-04-25T08:31:01;6.00;;;1.92;;
61393;SDS011;48555;50.952;-0.120;2023-04-25T08:33:26;10.45;;;2.63;;
61393;SDS011;48555;50.952;-0.120;2023-04-25T08:35:52;8.57;;;2.10;;
61393;SDS011;48555;50.952;-0.120;2023-04-25T08:38:18;10.13;;;2.47;;
61393;SDS011;48555;50.952;-0.120;2023-04-25T08:40:43;9.05;;;2.33;;
61393;SDS011;48555;50.952;-0.120;2023-04-25T08:43:09;6.70;;;2.03;;
61393;SDS011;48555;50.952;-0.120;2023-04-25T08:45:41;5.45;;;1.90;;
61393;SDS011;48555;50.952;-0.120;2023-04-25T08:48:10;7.07;;;1.60;;
61393;SDS011;48555;50.952;-0.120;2023-04-25T08:50:40;6.32;;;1.85;;
61393;SDS011;48555;50.952;-0.120;2023-04-25T08:53:15;8.48;;;2.00;;
61393;SDS011;48555;50.952;-0.120;2023-04-25T08:55:43;5.75;;;1.60;;
61393;SDS011;48555;50.952;-0.120;2023-04-25T08:58:11;5.90;;;2.10;;
61393;SDS011;48555;50.952;-0.120;2023-04-25T09:00:36;4.90;;;1.63;;
61393;SDS011;48555;50.952;-0.120;2023-04-25T09:03:02;6.43;;;1.63;;
61393;SDS011;48555;50.952;-0.120;2023-04-25T09:05:28;7.57;;;1.90;;
61393;SDS011;48555;50.952;-0.120;2023-04-25T09:07:54;8.40;;;2.22;;
61393;SDS011;48555;50.952;-0.120;2023-04-25T09:10:19;5.07;;;1.73;;
61393;SDS011;48555;50.952;-0.120;2023-04-25T09:12:44;7.65;;;1.70;;
61393;SDS011;48555;50.952;-0.120;2023-04-25T09:15:26;8.75;;;1.80;;
61393;SDS011;48555;50.952;-0.120;2023-04-25T09:17:57;6.50;;;1.73;;
61393;SDS011;48555;50.952;-0.120;2023-04-25T09:20:23;6.90;;;1.70;;
61393;SDS011;48555;50.952;-0.120;2023-04-25T09:22:49;8.93;;;1.58;;
61393;SDS011;48555;50.952;-0.120;2023-04-25T09:25:26;6.28;;;2.10;;
61393;SDS011;48555;50.952;-0.120;2023-04-25T09:27:54;5.68;;;1.80;;
61393;SDS011;48555;50.952;-0.120;2023-04-25T09:30:30;5.05;;;1.42;;
61393;SDS011;48555;50.952;-0.120;2023-04-25T09:32:58;5.45;;;1.67;;
61393;SDS011;48555;50.952;-0.120;2023-04-25T09:35:30;6.13;;;2.00;;
61393;SDS011;48555;50.952;-0.120;2023-04-25T09:38:01;7.90;;;1.83;;
61393;SDS011;48555;50.952;-0.120;2023-04-25T09:40:26;6.43;;;1.73;;
61393;SDS011;48555;50.952;-0.120;2023-04-25T09:42:51;9.40;;;1.98;;
61393;SDS011;48555;50.952;-0.120;2023-04-25T09:45:17;6.07;;;1.52;;
61393;SDS011;48555;50.952;-0.120;2023-04-25T09:47:42;7.47;;;1.80;;
61393;SDS011;48555;50.952;-0.120;2023-04-25T09:50:14;6.55;;;1.67;;
61393;SDS011;48555;50.952;-0.120;2023-04-25T09:52:40;5.25;;;1.33;;
61393;SDS011;48555;50.952;-0.120;2023-04-25T09:55:06;5.70;;;1.50;;
61393;SDS011;48555;50.952;-0.120;2023-04-25T09:57:32;9.00;;;1.90;;
61393;SDS011;48555;50.952;-0.120;2023-04-25T09:59:58;9.13;;;1.70;;
61393;SDS011;48555;50.952;-0.120;2023-04-25T10:02:26;7.50;;;2.17;;
61393;SDS011;48555;50.952;-0.120;2023-04-25T10:04:52;5.22;;;1.65;;
61393;SDS011;48555;50.952;-0.120;2023-04-25T10:07:20;5.60;;;1.75;;
61393;SDS011;48555;50.952;-0.120;2023-04-25T10:09:50;4.53;;;1.52;;
61393;SDS011;48555;50.952;-0.120;2023-04-25T10:12:24;5.15;;;1.90;;
61393;SDS011;48555;50.952;-0.120;2023-04-25T10:14:50;5.70;;;1.77;;
61393;SDS011;48555;50.952;-0.120;2023-04-25T10:17:18;5.70;;;1.52;;
61393;SDS011;48555;50.952;-0.120;2023-04-25T10:19:45;6.50;;;1.88;;
61393;SDS011;48555;50.952;-0.120;2023-04-25T10:22:20;3.47;;;1.40;;
61393;SDS011;48555;50.952;-0.120;2023-04-25T10:24:59;5.10;;;2.20;;
61393;SDS011;48555;50.952;-0.120;2023-04-25T10:27:28;5.88;;;2.10;;
61393;SDS011;48555;50.952;-0.120;2023-04-25T10:30:07;7.47;;;1.77;;
61393;SDS011;48555;50.952;-0.120;2023-04-25T10:32:41;4.88;;;1.67;;
61393;SDS011;48555;50.952;-0.120;2023-04-25T10:35:16;6.90;;;2.13;;
61393;SDS011;48555;50.952;-0.120;2023-04-25T10:40:41;4.53;;;1.50;;
61393;SDS011;48555;50.952;-0.120;2023-04-25T10:51:26;4.25;;;1.48;;
61393;SDS011;48555;50.952;-0.120;2023-04-25T10:53:58;4.50;;;1.60;;
61393;SDS011;48555;50.952;-0.120;2023-04-25T10:56:25;4.95;;;1.50;;
61393;SDS011;48555;50.952;-0.120;2023-04-25T10:59:02;3.67;;;1.40;;
61393;SDS011;48555;50.952;-0.120;2023-04-25T11:01:28;4.75;;;1.58;;
61393;SDS011;48555;50.952;-0.120;2023-04-25T11:04:01;5.50;;;2.00;;
61393;SDS011;48555;50.952;-0.120;2023-04-25T11:06:29;5.18;;;1.50;;
61393;SDS011;48555;50.952;-0.120;2023-04-25T11:09:14;4.13;;;1.40;;
61393;SDS011;48555;50.952;-0.120;2023-04-25T11:11:40;4.07;;;1.30;;
61393;SDS011;48555;50.952;-0.120;2023-04-25T11:14:05;6.82;;;1.50;;
61393;SDS011;48555;50.952;-0.120;2023-04-25T11:16:31;5.03;;;1.70;;
61393;SDS011;48555;50.952;-0.120;2023-04-25T11:18:57;5.35;;;1.60;;
61393;SDS011;48555;50.952;-0.120;2023-04-25T11:21:24;5.95;;;1.70;;
61393;SDS011;48555;50.952;-0.120;2023-04-25T11:23:52;4.75;;;1.25;;
61393;SDS011;48555;50.952;-0.120;2023-04-25T11:26:19;4.25;;;1.40;;
61393;SDS011;48555;50.952;-0.120;2023-04-25T11:28:45;4.55;;;1.40;;
61393;SDS011;48555;50.952;-0.120;2023-04-25T11:31:11;6.00;;;1.77;;
61393;SDS011;48555;50.952;-0.120;2023-04-25T11:33:36;4.63;;;1.55;;
61393;SDS011;48555;50.952;-0.120;2023-04-25T11:36:01;6.00;;;1.60;;
61393;SDS011;48555;50.952;-0.120;2023-04-25T11:38:27;3.83;;;1.70;;
61393;SDS011;48555;50.952;-0.120;2023-04-25T11:40:53;3.75;;;1.58;;
61393;SDS011;48555;50.952;-0.120;2023-04-25T11:43:21;3.63;;;1.52;;
61393;SDS011;48555;50.952;-0.120;2023-04-25T11:45:48;5.50;;;1.70;;
61393;SDS011;48555;50.952;-0.120;2023-04-25T11:48:14;6.72;;;1.80;;
61393;SDS011;48555;50.952;-0.120;2023-04-25T11:50:39;6.80;;;1.75;;
61393;SDS011;48555;50.952;-0.120;2023-04-25T11:53:05;4.95;;;1.58;;
61393;SDS011;48555;50.952;-0.120;2023-04-25T11:55:31;4.15;;;1.60;;
61393;SDS011;48555;50.952;-0.120;2023-04-25T11:57:59;4.93;;;1.70;;
61393;SDS011;48555;50.952;-0.120;2023-04-25T12:00:25;5.38;;;2.00;;
61393;SDS011;48555;50.952;-0.120;2023-04-25T12:02:52;6.78;;;1.70;;
61393;SDS011;48555;50.952;-0.120;2023-04-25T12:05:19;5.72;;;1.70;;
61393;SDS011;48555;50.952;-0.120;2023-04-25T12:07:48;4.78;;;1.48;;
61393;SDS011;48555;50.952;-0.120;2023-04-25T12:10:14;6.43;;;1.90;;
61393;SDS011;48555;50.952;-0.120;2023-04-25T12:12:41;4.97;;;1.60;;
61393;SDS011;48555;50.952;-0.120;2023-04-25T12:15:09;4.78;;;1.55;;
61393;SDS011;48555;50.952;-0.120;2023-04-25T12:17:40;6.28;;;1.60;;
61393;SDS011;48555;50.952;-0.120;2023-04-25T12:20:10;3.25;;;1.60;;
61393;SDS011;48555;50.952;-0.120;2023-04-25T12:22:40;5.00;;;1.92;;
61393;SDS011;48555;50.952;-0.120;2023-04-25T12:25:09;5.05;;;1.52;;
61393;SDS011;48555;50.952;-0.120;2023-04-25T12:27:35;8.10;;;2.00;;
61393;SDS011;48555;50.952;-0.120;2023-04-25T12:30:02;5.25;;;2.00;;
61393;SDS011;48555;50.952;-0.120;2023-04-25T12:32:28;6.80;;;2.05;;
61393;SDS011;48555;50.952;-0.120;2023-04-25T12:34:54;4.28;;;1.85;;
61393;SDS011;48555;50.952;-0.120;2023-04-25T12:37:19;4.65;;;1.83;;
61393;SDS011;48555;50.952;-0.120;2023-04-25T12:39:45;6.43;;;2.00;;
61393;SDS011;48555;50.952;-0.120;2023-04-25T12:42:11;3.47;;;1.58;;
61393;SDS011;48555;50.952;-0.120;2023-04-25T12:44:39;6.70;;;1.80;;
61393;SDS011;48555;50.952;-0.120;2023-04-25T12:47:05;4.65;;;1.77;;
61393;SDS011;48555;50.952;-0.120;2023-04-25T12:49:30;4.32;;;1.77;;
61393;SDS011;48555;50.952;-0.120;2023-04-25T12:51:56;4.78;;;1.88;;
61393;SDS011;48555;50.952;-0.120;2023-04-25T12:54:22;6.72;;;2.00;;
61393;SDS011;48555;50.952;-0.120;2023-04-25T12:56:47;8.63;;;1.90;;
61393;SDS011;48555;50.952;-0.120;2023-04-25T12:59:12;6.55;;;1.70;;
61393;SDS011;48555;50.952;-0.120;2023-04-25T13:01:38;5.07;;;1.70;;
61393;SDS011;48555;50.952;-0.120;2023-04-25T13:04:03;5.03;;;1.80;;
61393;SDS011;48555;50.952;-0.120;2023-04-25T13:06:29;6.43;;;1.70;;
61393;SDS011;48555;50.952;-0.120;2023-04-25T13:08:55;6.70;;;1.92;;
61393;SDS011;48555;50.952;-0.120;2023-04-25T13:11:21;4.15;;;1.98;;
61393;SDS011;48555;50.952;-0.120;2023-04-25T13:13:46;4.30;;;1.77;;
61393;SDS011;48555;50.952;-0.120;2023-04-25T13:16:12;5.03;;;1.70;;
61393;SDS011;48555;50.952;-0.120;2023-04-25T13:18:39;4.50;;;1.77;;
61393;SDS011;48555;50.952;-0.120;2023-04-25T13:21:04;6.82;;;1.95;;
61393;SDS011;48555;50.952;-0.120;2023-04-25T13:23:30;6.85;;;2.08;;
61393;SDS011;48555;50.952;-0.120;2023-04-25T13:25:56;6.95;;;2.30;;
61393;SDS011;48555;50.952;-0.120;2023-04-25T13:28:25;5.85;;;1.95;;
61393;SDS011;48555;50.952;-0.120;2023-04-25T13:30:51;4.97;;;1.77;;
61393;SDS011;48555;50.952;-0.120;2023-04-25T13:33:17;4.85;;;1.90;;
61393;SDS011;48555;50.952;-0.120;2023-04-25T13:35:42;6.70;;;1.92;;
61393;SDS011;48555;50.952;-0.120;2023-04-25T13:38:08;5.78;;;2.03;;
61393;SDS011;48555;50.952;-0.120;2023-04-25T13:40:33;4.68;;;1.70;;
61393;SDS011;48555;50.952;-0.120;2023-04-25T13:42:59;8.18;;;1.90;;
61393;SDS011;48555;50.952;-0.120;2023-04-25T13:45:26;6.63;;;1.90;;
61393;SDS011;48555;50.952;-0.120;2023-04-25T13:47:51;7.20;;;1.67;;
61393;SDS011;48555;50.952;-0.120;2023-04-25T13:50:16;6.05;;;1.77;;
61393;SDS011;48555;50.952;-0.120;2023-04-25T13:52:42;5.05;;;1.63;;
61393;SDS011;48555;50.952;-0.120;2023-04-25T13:55:08;4.57;;;1.92;;
61393;SDS011;48555;50.952;-0.120;2023-04-25T13:57:34;5.80;;;1.65;;
61393;SDS011;48555;50.952;-0.120;2023-04-25T14:00:00;5.40;;;1.73;;
61393;SDS011;48555;50.952;-0.120;2023-04-25T14:02:29;6.38;;;2.03;;
61393;SDS011;48555;50.952;-0.120;2023-04-25T14:04:55;5.10;;;1.95;;
61393;SDS011;48555;50.952;-0.120;2023-04-25T14:07:21;5.47;;;1.77;;
61393;SDS011;48555;50.952;-0.120;2023-04-25T14:09:46;4.88;;;1.95;;
61393;SDS011;48555;50.952;-0.120;2023-04-25T14:12:12;5.00;;;1.48;;
61393;SDS011;48555;50.952;-0.120;2023-04-25T14:14:37;5.82;;;1.83;;
61393;SDS011;48555;50.952;-0.120;2023-04-25T14:17:03;4.72;;;1.70;;
61393;SDS011;48555;50.952;-0.120;2023-04-25T14:19:28;4.93;;;1.83;;
61393;SDS011;48555;50.952;-0.120;2023-04-25T14:21:54;5.25;;;1.98;;
61393;SDS011;48555;50.952;-0.120;2023-04-25T14:24:20;7.57;;;1.70;;
61393;SDS011;48555;50.952;-0.120;2023-04-25T14:26:45;5.00;;;1.60;;
61393;SDS011;48555;50.952;-0.120;2023-04-25T14:29:11;4.30;;;1.70;;
61393;SDS011;48555;50.952;-0.120;2023-04-25T14:31:37;5.38;;;1.75;;
61393;SDS011;48555;50.952;-0.120;2023-04-25T14:34:03;4.72;;;1.58;;
61393;SDS011;48555;50.952;-0.120;2023-04-25T14:36:29;6.78;;;2.10;;